createdAt,value
2023-06-17T00:00:55.732Z,13.08
2023-06-17T00:03:22.284Z,13.10
2023-06-17T00:05:48.749Z,13.08
2023-06-17T00:08:15.309Z,13.02
2023-06-17T00:10:41.765Z,12.97
2023-06-17T00:13:08.682Z,12.97
2023-06-17T00:15:37.660Z,12.87
2023-06-17T00:18:06.462Z,12.91
2023-06-17T00:20:33.847Z,12.83
2023-06-17T00:23:00.295Z,12.81
2023-06-17T00:25:26.702Z,12.73
2023-06-17T00:27:53.114Z,12.76
2023-06-17T00:30:19.877Z,12.74
2023-06-17T00:32:46.609Z,12.68
2023-06-17T00:35:13.125Z,12.72
2023-06-17T00:37:39.672Z,12.71
2023-06-17T00:40:09.063Z,12.77
2023-06-17T00:42:36.139Z,12.73
2023-06-17T00:45:02.647Z,12.73
2023-06-17T00:47:29.258Z,12.73
2023-06-17T00:49:55.809Z,12.63
2023-06-17T00:52:40.118Z,12.68
2023-06-17T00:55:09.852Z,12.66
2023-06-17T00:57:38.526Z,12.72
2023-06-17T01:00:10.874Z,12.71
2023-06-17T01:02:41.491Z,12.61
2023-06-17T01:05:13.833Z,12.56
2023-06-17T01:07:57.356Z,12.59
2023-06-17T01:10:59.189Z,12.63
2023-06-17T01:13:27.857Z,12.56
2023-06-17T01:15:55.105Z,12.57
2023-06-17T01:18:22.216Z,12.53
2023-06-17T01:20:54.560Z,12.61
2023-06-17T01:23:22.406Z,12.56
2023-06-17T01:25:50.697Z,12.57
2023-06-17T01:28:17.862Z,12.57
2023-06-17T01:30:45.914Z,12.54
2023-06-17T01:33:14.733Z,12.55
2023-06-17T01:35:47.094Z,12.56
2023-06-17T01:38:21.989Z,12.55
2023-06-17T01:40:53.183Z,12.43
2023-06-17T01:43:20.841Z,12.42
2023-06-17T01:45:47.731Z,12.42
2023-06-17T01:48:14.370Z,12.39
2023-06-17T01:50:40.770Z,12.40
2023-06-17T01:53:07.152Z,12.31
2023-06-17T01:55:33.613Z,12.23
2023-06-17T01:57:59.985Z,12.22
2023-06-17T02:00:27.652Z,12.23
2023-06-17T02:02:54.210Z,12.17
2023-06-17T02:05:21.272Z,12.18
2023-06-17T02:07:48.823Z,12.09
2023-06-17T02:10:16.465Z,12.07
2023-06-17T02:12:42.965Z,11.99
2023-06-17T02:15:10.008Z,12.10
2023-06-17T02:17:36.689Z,12.18
2023-06-17T02:20:07.382Z,12.18
2023-06-17T02:22:33.930Z,12.11
2023-06-17T02:25:00.508Z,12.02
2023-06-17T02:27:26.896Z,12.04
2023-06-17T02:29:53.329Z,12.13
2023-06-17T02:32:19.743Z,12.12
2023-06-17T02:34:49.155Z,12.17
2023-06-17T02:37:16.384Z,12.17
2023-06-17T02:39:43.389Z,12.12
2023-06-17T02:42:09.994Z,12.09
2023-06-17T02:44:37.055Z,11.99
2023-06-17T02:47:04.378Z,12.03
2023-06-17T02:49:30.970Z,11.99
2023-06-17T02:51:57.352Z,11.94
2023-06-17T02:54:23.776Z,12.04
2023-06-17T02:56:50.272Z,11.97
2023-06-17T02:59:16.787Z,11.99
2023-06-17T03:01:44.488Z,11.98
2023-06-17T03:04:14.278Z,11.97
2023-06-17T03:06:45.574Z,11.99
2023-06-17T03:09:12.176Z,12.00
2023-06-17T03:11:38.678Z,11.92
2023-06-17T03:14:05.075Z,11.85
2023-06-17T03:16:34.994Z,11.84
2023-06-17T03:19:02.381Z,11.84
2023-06-17T03:21:30.666Z,11.86
2023-06-17T03:24:00.436Z,11.80
2023-06-17T03:26:27.124Z,11.72
2023-06-17T03:28:54.347Z,11.74
2023-06-17T03:31:22.582Z,11.71
2023-06-17T03:33:51.706Z,11.68
2023-06-17T03:36:25.876Z,11.66
2023-06-17T03:38:52.428Z,11.59
2023-06-17T03:41:18.843Z,11.70
2023-06-17T03:43:45.433Z,11.77
2023-06-17T03:46:11.828Z,11.81
2023-06-17T03:48:38.212Z,11.75
2023-06-17T03:51:04.624Z,11.73
2023-06-17T03:53:31.068Z,11.82
2023-06-17T03:55:57.562Z,11.80
2023-06-17T03:58:23.968Z,11.90
2023-06-17T04:00:50.380Z,11.86
2023-06-17T04:03:16.988Z,11.96
2023-06-17T04:05:43.961Z,11.95
2023-06-17T04:08:10.504Z,11.94
2023-06-17T04:10:37.115Z,12.11
2023-06-17T04:13:03.827Z,12.21
2023-06-17T04:15:30.389Z,12.28
2023-06-17T04:17:58.457Z,12.44
2023-06-17T04:20:26.746Z,12.52
2023-06-17T04:22:53.381Z,12.60
2023-06-17T04:25:21.895Z,12.72
2023-06-17T04:27:50.100Z,12.81
2023-06-17T04:30:17.446Z,12.95
2023-06-17T04:32:44.661Z,13.05
2023-06-17T04:35:12.154Z,13.13
2023-06-17T04:37:38.708Z,13.34
2023-06-17T04:40:08.436Z,13.43
2023-06-17T04:42:34.897Z,13.65
2023-06-17T04:45:02.735Z,13.79
2023-06-17T04:47:29.654Z,13.99
2023-06-17T04:49:56.834Z,14.20
2023-06-17T04:52:25.717Z,14.38
2023-06-17T04:54:52.744Z,14.59
2023-06-17T04:57:19.648Z,14.76
2023-06-17T04:59:46.159Z,14.97
2023-06-17T05:02:12.732Z,15.24
2023-06-17T05:04:39.131Z,15.37
2023-06-17T05:07:05.861Z,15.62
2023-06-17T05:09:32.294Z,15.80
2023-06-17T05:11:58.736Z,16.02
2023-06-17T05:14:25.469Z,16.15
2023-06-17T05:16:51.885Z,16.37
2023-06-17T05:19:18.634Z,16.62
2023-06-17T05:21:45.027Z,16.84
2023-06-17T05:24:11.474Z,16.95
2023-06-17T05:26:37.914Z,17.15
2023-06-17T05:29:04.299Z,17.34
2023-06-17T05:31:30.836Z,17.44
2023-06-17T05:33:57.269Z,17.61
2023-06-17T05:36:26.282Z,17.88
2023-06-17T05:38:53.029Z,18.13
2023-06-17T05:41:19.433Z,18.32
2023-06-17T05:43:47.400Z,18.38
2023-06-17T05:46:13.861Z,18.60
2023-06-17T05:48:40.373Z,19.02
2023-06-17T05:51:07.093Z,19.31
2023-06-17T05:53:33.567Z,19.73
2023-06-17T05:55:59.991Z,19.97
2023-06-17T05:58:26.451Z,20.40
2023-06-17T06:00:52.919Z,20.70
2023-06-17T06:03:19.389Z,21.03
2023-06-17T06:05:45.900Z,21.40
2023-06-17T06:08:12.298Z,21.71
2023-06-17T06:10:38.690Z,21.92
2023-06-17T06:13:05.848Z,22.22
2023-06-17T06:15:33.540Z,22.19
2023-06-17T06:18:00.030Z,22.25
2023-06-17T06:20:27.227Z,22.78
2023-06-17T06:22:54.398Z,23.12
2023-06-17T06:25:20.995Z,23.03
2023-06-17T06:27:50.650Z,23.30
2023-06-17T06:30:17.135Z,23.59
2023-06-17T06:32:43.593Z,23.25
2023-06-17T06:35:10.047Z,23.36
2023-06-17T06:37:36.459Z,23.06
2023-06-17T06:40:06.372Z,23.13
2023-06-17T06:42:32.752Z,23.46
2023-06-17T06:44:59.152Z,23.39
2023-06-17T06:47:25.713Z,23.87
2023-06-17T06:49:52.135Z,24.44
2023-06-17T06:52:18.572Z,24.49
2023-06-17T06:54:44.971Z,24.20
2023-06-17T06:57:11.389Z,24.59
2023-06-17T06:59:37.828Z,24.14
2023-06-17T07:02:04.410Z,24.18
2023-06-17T07:04:31.421Z,23.98
2023-06-17T07:06:57.876Z,24.28
2023-06-17T07:09:24.268Z,24.00
2023-06-17T07:11:50.808Z,24.49
2023-06-17T07:14:17.199Z,24.72
2023-06-17T07:16:43.642Z,24.51
2023-06-17T07:19:10.091Z,24.95
2023-06-17T07:21:36.496Z,25.01
2023-06-17T07:24:02.986Z,24.86
2023-06-17T07:26:29.441Z,25.00
2023-06-17T07:28:56.347Z,24.69
2023-06-17T07:31:24.172Z,24.64
2023-06-17T07:33:52.650Z,24.71
2023-06-17T07:36:24.382Z,24.35
2023-06-17T07:38:51.607Z,24.04
2023-06-17T07:41:18.589Z,23.65
2023-06-17T07:43:44.973Z,23.59
2023-06-17T07:46:11.509Z,23.17
2023-06-17T07:48:38.023Z,22.90
2023-06-17T07:51:04.433Z,22.83
2023-06-17T07:53:30.826Z,22.78
2023-06-17T07:55:57.217Z,22.41
2023-06-17T07:58:23.618Z,22.19
2023-06-17T08:00:50.076Z,22.05
2023-06-17T08:03:16.614Z,22.13
2023-06-17T08:05:43.217Z,21.93
2023-06-17T08:08:09.624Z,21.95
2023-06-17T08:10:36.146Z,21.98
2023-06-17T08:13:02.731Z,21.97
2023-06-17T08:15:29.334Z,22.08
2023-06-17T08:17:55.822Z,21.90
2023-06-17T08:20:22.977Z,21.92
2023-06-17T08:22:49.811Z,21.91
2023-06-17T08:25:16.332Z,21.98
2023-06-17T08:27:48.568Z,21.91
2023-06-17T08:30:15.106Z,21.83
2023-06-17T08:32:42.165Z,21.73
2023-06-17T08:35:08.676Z,21.79
2023-06-17T08:37:35.099Z,21.84
2023-06-17T08:40:01.796Z,21.84
2023-06-17T08:42:29.082Z,21.90
2023-06-17T08:44:58.421Z,22.07
2023-06-17T08:47:25.831Z,22.10
2023-06-17T08:49:55.644Z,22.13
2023-06-17T08:52:22.836Z,22.15
2023-06-17T08:54:50.025Z,22.25
2023-06-17T08:57:18.727Z,22.26
2023-06-17T08:59:45.478Z,22.34
2023-06-17T09:02:12.098Z,22.40
2023-06-17T09:04:38.689Z,22.33
2023-06-17T09:07:05.518Z,22.32
2023-06-17T09:09:31.938Z,22.41
2023-06-17T09:12:06.100Z,22.41
2023-06-17T09:14:33.684Z,22.54
2023-06-17T09:17:01.946Z,22.38
2023-06-17T09:19:31.557Z,22.47
2023-06-17T09:22:05.270Z,22.41
2023-06-17T09:24:31.910Z,22.46
2023-06-17T09:26:58.541Z,22.55
2023-06-17T09:29:25.019Z,22.64
2023-06-17T09:31:56.234Z,22.83
2023-06-17T09:34:23.357Z,22.86
2023-06-17T09:37:02.754Z,23.06
2023-06-17T09:39:33.291Z,23.23
2023-06-17T09:42:18.005Z,23.20
2023-06-17T09:44:47.718Z,23.11
2023-06-17T09:47:14.686Z,23.12
2023-06-17T09:49:44.759Z,23.09
2023-06-17T09:52:11.902Z,23.06
2023-06-17T09:54:39.237Z,22.97
2023-06-17T09:57:08.625Z,22.94
2023-06-17T09:59:35.236Z,22.96
2023-06-17T10:02:01.648Z,22.99
2023-06-17T10:04:28.110Z,23.15
2023-06-17T10:06:54.753Z,23.32
2023-06-17T10:09:21.454Z,23.57
2023-06-17T10:11:53.902Z,23.55
2023-06-17T10:14:30.791Z,23.45
2023-06-17T10:16:58.357Z,23.30
2023-06-17T10:19:30.079Z,23.38
2023-06-17T10:21:59.632Z,23.12
2023-06-17T10:24:27.330Z,23.01
2023-06-17T10:26:54.513Z,22.95
2023-06-17T10:29:21.867Z,22.93
2023-06-17T10:31:48.508Z,23.01
2023-06-17T10:34:16.909Z,23.00
2023-06-17T10:36:43.519Z,23.04
2023-06-17T10:39:12.174Z,23.09
2023-06-17T10:41:41.573Z,23.08
2023-06-17T10:44:35.235Z,23.05
2023-06-17T10:47:03.233Z,23.03
2023-06-17T10:49:43.152Z,23.11
2023-06-17T10:52:14.127Z,23.28
2023-06-17T10:54:52.869Z,23.31
2023-06-17T10:57:32.713Z,23.32
2023-06-17T11:00:11.200Z,23.32
2023-06-17T11:02:38.885Z,23.42
2023-06-17T11:05:09.623Z,23.44
2023-06-17T11:07:37.317Z,23.48
2023-06-17T11:10:04.366Z,23.59
2023-06-17T11:12:31.032Z,23.63
2023-06-17T11:15:01.116Z,23.60
2023-06-17T11:17:28.023Z,23.65
2023-06-17T11:19:54.472Z,23.68
2023-06-17T11:22:20.900Z,23.74
2023-06-17T11:24:47.547Z,23.65
2023-06-17T11:27:14.062Z,23.67
2023-06-17T11:29:44.546Z,23.75
2023-06-17T11:32:11.367Z,23.70
2023-06-17T11:34:37.849Z,23.75
2023-06-17T11:37:07.672Z,23.81
2023-06-17T11:39:35.641Z,23.84
2023-06-17T11:42:04.496Z,23.71
2023-06-17T11:44:35.044Z,23.80
2023-06-17T11:47:09.837Z,23.72
2023-06-17T11:49:36.770Z,23.64
2023-06-17T11:52:10.883Z,23.76
2023-06-17T11:54:46.822Z,23.61
2023-06-17T11:57:18.713Z,23.59
2023-06-17T11:59:45.588Z,23.64
2023-06-17T12:02:12.733Z,23.45
2023-06-17T12:04:39.873Z,23.31
2023-06-17T12:07:07.615Z,23.38
2023-06-17T12:09:49.775Z,23.42
2023-06-17T12:12:36.544Z,23.58
2023-06-17T12:15:15.011Z,23.66
2023-06-17T12:17:47.526Z,23.82
2023-06-17T12:20:18.026Z,23.86
2023-06-17T12:22:45.451Z,23.87
2023-06-17T12:25:12.625Z,23.73
2023-06-17T12:27:40.175Z,23.67
2023-06-17T12:30:07.988Z,23.67
2023-06-17T12:32:35.308Z,23.71
2023-06-17T12:35:02.009Z,23.81
2023-06-17T12:37:30.022Z,23.85
2023-06-17T12:39:59.306Z,24.00
2023-06-17T12:42:26.445Z,23.91
2023-06-17T12:44:53.388Z,24.02
2023-06-17T12:47:20.350Z,23.99
2023-06-17T12:49:47.670Z,23.95
2023-06-17T12:52:14.631Z,23.86
2023-06-17T12:54:43.333Z,24.01
2023-06-17T12:57:10.378Z,24.01
2023-06-17T12:59:37.108Z,23.96
2023-06-17T13:02:03.906Z,23.99
2023-06-17T13:04:30.895Z,24.13
2023-06-17T13:06:58.268Z,24.27
2023-06-17T13:09:25.174Z,24.41
2023-06-17T13:11:53.052Z,24.52
2023-06-17T13:14:20.685Z,24.78
2023-06-17T13:16:47.891Z,24.64
2023-06-17T13:19:16.858Z,24.64
2023-06-17T13:21:44.140Z,24.65
2023-06-17T13:24:10.592Z,24.66
2023-06-17T13:26:37.565Z,24.59
2023-06-17T13:29:04.591Z,24.59
2023-06-17T13:31:31.782Z,24.57
2023-06-17T13:33:58.301Z,24.78
2023-06-17T13:36:26.216Z,24.64
2023-06-17T13:38:53.014Z,24.66
2023-06-17T13:41:19.674Z,24.79
2023-06-17T13:43:46.225Z,24.89
2023-06-17T13:46:12.776Z,24.73
2023-06-17T13:48:39.169Z,24.87
2023-06-17T13:51:05.615Z,24.84
2023-06-17T13:53:32.248Z,24.57
2023-06-17T13:55:59.576Z,24.42
2023-06-17T13:58:26.353Z,24.40
2023-06-17T14:00:53.493Z,24.28
2023-06-17T14:03:20.992Z,24.24
2023-06-17T14:05:47.956Z,24.25
2023-06-17T14:08:14.628Z,24.29
2023-06-17T14:10:41.584Z,24.23
2023-06-17T14:13:08.224Z,24.19
2023-06-17T14:15:34.727Z,24.24
2023-06-17T14:18:01.687Z,24.37
2023-06-17T14:20:28.244Z,24.39
2023-06-17T14:22:57.734Z,24.41
2023-06-17T14:25:25.553Z,24.37
2023-06-17T14:27:53.168Z,24.45
2023-06-17T14:30:20.317Z,24.56
2023-06-17T14:32:49.088Z,24.61
2023-06-17T14:35:18.693Z,24.53
2023-06-17T14:37:46.957Z,24.63
2023-06-17T14:40:14.784Z,24.58
2023-06-17T14:42:41.671Z,24.39
2023-06-17T14:45:09.863Z,24.35
2023-06-17T14:47:36.890Z,24.37
2023-06-17T14:50:04.380Z,24.42
2023-06-17T14:52:30.938Z,24.40
2023-06-17T14:54:57.376Z,24.52
2023-06-17T14:57:23.941Z,24.40
2023-06-17T14:59:50.755Z,24.38
2023-06-17T15:02:54.295Z,24.41
2023-06-17T15:05:21.386Z,24.48
2023-06-17T15:07:49.734Z,24.55
2023-06-17T15:10:16.405Z,24.50
2023-06-17T15:12:43.204Z,24.65
2023-06-17T15:15:11.939Z,24.59
2023-06-17T15:17:38.992Z,24.61
2023-06-17T15:20:06.444Z,24.55
2023-06-17T15:22:32.836Z,24.61
2023-06-17T15:24:59.233Z,24.65
2023-06-17T15:27:25.660Z,24.77
2023-06-17T15:29:52.061Z,24.83
2023-06-17T15:32:19.633Z,24.83
2023-06-17T15:34:47.929Z,24.70
2023-06-17T15:37:14.420Z,24.64
2023-06-17T15:39:40.935Z,24.61
2023-06-17T15:42:07.628Z,24.58
2023-06-17T15:44:34.099Z,24.78
2023-06-17T15:47:00.519Z,24.76
2023-06-17T15:49:26.920Z,24.73
2023-06-17T15:51:53.302Z,24.70
2023-06-17T15:54:26.278Z,24.57
2023-06-17T15:56:53.010Z,24.57
2023-06-17T15:59:19.456Z,24.65
2023-06-17T16:01:46.432Z,24.48
2023-06-17T16:04:42.540Z,24.47
2023-06-17T16:07:11.476Z,24.51
2023-06-17T16:09:48.828Z,24.49
2023-06-17T16:12:16.775Z,24.53
2023-06-17T16:14:44.774Z,24.50
2023-06-17T16:17:11.900Z,24.50
2023-06-17T16:19:39.067Z,24.48
2023-06-17T16:22:13.312Z,24.50
2023-06-17T16:24:41.569Z,24.54
2023-06-17T16:27:08.225Z,24.56
2023-06-17T16:29:34.779Z,24.42
2023-06-17T16:32:01.284Z,24.45
2023-06-17T16:34:28.088Z,24.41
2023-06-17T16:36:54.608Z,24.42
2023-06-17T16:39:21.392Z,24.46
2023-06-17T16:41:47.906Z,24.41
2023-06-17T16:44:14.321Z,24.35
2023-06-17T16:46:41.189Z,24.49
2023-06-17T16:49:07.613Z,24.37
2023-06-17T16:51:34.115Z,24.40
2023-06-17T16:54:03.678Z,24.37
2023-06-17T16:56:31.899Z,24.36
2023-06-17T16:58:58.430Z,24.39
2023-06-17T17:01:25.042Z,24.39
2023-06-17T17:03:51.817Z,24.34
2023-06-17T17:06:18.353Z,24.27
2023-06-17T17:08:48.991Z,24.24
2023-06-17T17:11:15.733Z,24.20
2023-06-17T17:13:48.751Z,24.16
2023-06-17T17:16:16.973Z,24.13
2023-06-17T17:18:43.432Z,24.06
2023-06-17T17:21:09.849Z,24.18
2023-06-17T17:23:36.316Z,24.15
2023-06-17T17:26:02.742Z,24.09
2023-06-17T17:28:29.731Z,24.04
2023-06-17T17:30:56.260Z,23.95
2023-06-17T17:33:23.955Z,23.91
2023-06-17T17:35:51.286Z,23.83
2023-06-17T17:38:17.678Z,23.82
2023-06-17T17:40:44.076Z,23.73
2023-06-17T17:43:10.571Z,23.75
2023-06-17T17:45:37.017Z,23.73
2023-06-17T17:48:03.614Z,23.65
2023-06-17T17:50:30.059Z,23.61
2023-06-17T17:52:56.492Z,23.58
2023-06-17T17:55:22.945Z,23.50
2023-06-17T17:57:49.333Z,23.50
2023-06-17T18:00:16.093Z,23.40
2023-06-17T18:02:42.556Z,23.32
2023-06-17T18:05:09.418Z,23.30
2023-06-17T18:07:36.100Z,23.21
2023-06-17T18:10:03.775Z,23.16
2023-06-17T18:12:30.506Z,23.06
2023-06-17T18:14:57.404Z,22.98
2023-06-17T18:17:23.982Z,22.88
2023-06-17T18:19:50.421Z,22.85
2023-06-17T18:22:16.918Z,22.80
2023-06-17T18:24:43.312Z,22.70
2023-06-17T18:27:10.669Z,22.66
2023-06-17T18:29:38.017Z,22.56
2023-06-17T18:32:05.179Z,22.43
2023-06-17T18:34:31.559Z,22.31
2023-06-17T18:36:57.969Z,22.22
2023-06-17T18:39:24.379Z,22.09
2023-06-17T18:41:51.041Z,21.96
2023-06-17T18:44:17.517Z,21.79
2023-06-17T18:46:44.060Z,21.69
2023-06-17T18:49:21.218Z,21.69
2023-06-17T18:51:47.869Z,21.56
2023-06-17T18:54:14.295Z,21.36
2023-06-17T18:56:40.816Z,21.33
2023-06-17T18:59:07.350Z,21.25
2023-06-17T19:01:35.169Z,21.13
2023-06-17T19:04:04.756Z,21.00
2023-06-17T19:06:31.146Z,20.83
2023-06-17T19:08:57.585Z,20.81
2023-06-17T19:11:24.049Z,20.69
2023-06-17T19:13:50.494Z,20.57
2023-06-17T19:16:18.183Z,20.48
2023-06-17T19:18:44.965Z,20.40
2023-06-17T19:21:11.437Z,20.26
2023-06-17T19:23:37.829Z,20.19
2023-06-17T19:26:04.269Z,20.12
2023-06-17T19:28:30.718Z,20.04
2023-06-17T19:30:57.154Z,19.95
2023-06-17T19:33:23.695Z,19.82
2023-06-17T19:35:50.217Z,19.79
2023-06-17T19:38:16.750Z,19.70
2023-06-17T19:40:43.185Z,19.55
2023-06-17T19:43:09.629Z,19.50
2023-06-17T19:45:37.209Z,19.38
2023-06-17T19:48:04.977Z,19.31
2023-06-17T19:50:33.429Z,19.23
2023-06-17T19:53:00.378Z,19.18
2023-06-17T19:55:26.792Z,19.13
2023-06-17T19:57:53.391Z,19.06
2023-06-17T20:00:20.071Z,18.90
2023-06-17T20:02:47.187Z,18.81
2023-06-17T20:05:13.648Z,18.80
2023-06-17T20:07:40.071Z,18.67
2023-06-17T20:10:06.993Z,18.58
2023-06-17T20:12:33.406Z,18.50
2023-06-17T20:14:59.831Z,18.43
2023-06-17T20:17:27.005Z,18.33
2023-06-17T20:19:56.402Z,18.27
2023-06-17T20:22:24.304Z,18.20
2023-06-17T20:24:50.867Z,18.05
2023-06-17T20:27:17.322Z,17.93
2023-06-17T20:29:44.273Z,17.89
2023-06-17T20:32:12.143Z,17.87
2023-06-17T20:34:38.679Z,17.85
2023-06-17T20:37:05.447Z,17.79
2023-06-17T20:39:31.887Z,17.71
2023-06-17T20:41:58.926Z,17.70
2023-06-17T20:44:25.633Z,17.65
2023-06-17T20:46:53.479Z,17.59
2023-06-17T20:49:20.003Z,17.51
2023-06-17T20:51:46.402Z,17.52
2023-06-17T20:54:12.876Z,17.44
2023-06-17T20:56:39.442Z,17.39
2023-06-17T20:59:06.488Z,17.38
2023-06-17T21:01:32.891Z,17.26
2023-06-17T21:03:59.359Z,17.28
2023-06-17T21:06:25.848Z,17.17
2023-06-17T21:08:52.288Z,17.16
2023-06-17T21:11:18.818Z,17.11
2023-06-17T21:13:45.412Z,17.08
2023-06-17T21:16:11.856Z,17.04
2023-06-17T21:18:38.344Z,16.98
2023-06-17T21:21:04.740Z,16.93
2023-06-17T21:23:31.235Z,16.84
2023-06-17T21:26:00.301Z,16.81
2023-06-17T21:28:27.190Z,16.76
2023-06-17T21:30:53.613Z,16.77
2023-06-17T21:33:19.996Z,16.68
2023-06-17T21:35:46.431Z,16.62
2023-06-17T21:38:12.829Z,16.62
2023-06-17T21:40:39.232Z,16.56
2023-06-17T21:43:05.623Z,16.55
2023-06-17T21:45:32.023Z,16.54
2023-06-17T21:47:58.536Z,16.35
2023-06-17T21:50:24.955Z,16.34
2023-06-17T21:52:51.351Z,16.30
2023-06-17T21:55:17.771Z,16.29
2023-06-17T21:57:44.261Z,16.23
2023-06-17T22:00:14.438Z,16.16
2023-06-17T22:02:41.872Z,16.10
2023-06-17T22:05:08.900Z,16.08
2023-06-17T22:07:35.958Z,16.00
2023-06-17T22:10:02.584Z,16.00
2023-06-17T22:12:29.017Z,16.03
2023-06-17T22:14:55.513Z,15.94
2023-06-17T22:17:22.159Z,15.92
2023-06-17T22:19:48.784Z,15.91
2023-06-17T22:22:15.264Z,15.81
2023-06-17T22:24:42.440Z,15.82
2023-06-17T22:27:12.775Z,15.73
2023-06-17T22:29:39.173Z,15.67
2023-06-17T22:32:06.128Z,15.66
2023-06-17T22:34:32.624Z,15.63
2023-06-17T22:36:59.661Z,15.69
2023-06-17T22:39:26.040Z,15.64
2023-06-17T22:41:52.481Z,15.60
2023-06-17T22:44:18.872Z,15.55
2023-06-17T22:46:45.354Z,15.52
2023-06-17T22:49:11.780Z,15.56
2023-06-17T22:51:38.850Z,15.45
2023-06-17T22:54:05.632Z,15.45
2023-06-17T22:56:32.041Z,15.43
2023-06-17T22:58:58.411Z,15.36
2023-06-17T23:01:24.812Z,15.33
2023-06-17T23:03:51.227Z,15.37
2023-06-17T23:06:17.624Z,15.32
2023-06-17T23:08:44.018Z,15.28
2023-06-17T23:11:10.428Z,15.28
2023-06-17T23:13:36.826Z,15.27
2023-06-17T23:16:03.388Z,15.28
2023-06-17T23:18:29.816Z,15.29
2023-06-17T23:20:56.230Z,15.19
2023-06-17T23:23:22.656Z,15.21
2023-06-17T23:25:50.649Z,15.13
2023-06-17T23:28:19.025Z,15.12
2023-06-17T23:30:45.661Z,15.19
2023-06-17T23:33:14.820Z,15.19
2023-06-17T23:35:42.271Z,15.05
2023-06-17T23:38:08.689Z,15.00
2023-06-17T23:40:35.281Z,15.01
2023-06-17T23:43:01.823Z,15.08
2023-06-17T23:45:28.909Z,15.02
2023-06-17T23:47:55.499Z,15.02
2023-06-17T23:50:22.958Z,15.04
2023-06-17T23:52:49.654Z,15.02
2023-06-17T23:55:16.217Z,14.99
2023-06-17T23:57:42.997Z,15.02
